RYR2TL EPMO-EGSS
Flight info
| Callsign | RYR2TL |
|---|---|
| Flight time | 1h 54m |
| Altitude | 38000 |
| Route | LOLSI T174 INDIG DCT SUBIX DCT HLZ DCT RKN DCT NIGUG DCT ODVIL DCT NOGRO M40 RINIS |
| Aircraft | B738/M-SDE2E3FGHIRWXY/LB1 |
Departure
| Time | 2026-04-22 13:34 |
|---|---|
| Airport | Warsaw Modlin Airport (EPMO) |
Arrival
| Time | 2026-04-22 15:28 |
|---|---|
| Airport | London Stansted Airport (EGSS) |
| Time | Latitude | Longitude | Altitude | Speed | Heading |
|---|---|---|---|---|---|
| 2026-04-22 13:05 | 52.44714 | 20.64938 | 335 ft | 0 kts | 206° |
| 2026-04-22 13:25 | 52.44716 | 20.64940 | 337 ft | 2 kts | 206° |
| 2026-04-22 13:26 | 52.44731 | 20.64952 | 333 ft | 4 kts | 205° |
| 2026-04-22 13:26 | 52.44752 | 20.64960 | 333 ft | 4 kts | 144° |
| 2026-04-22 13:26 | 52.44761 | 20.64933 | 333 ft | 2 kts | 81° |
| 2026-04-22 13:26 | 52.44757 | 20.64898 | 333 ft | 2 kts | 81° |
| 2026-04-22 13:27 | 52.44757 | 20.64897 | 333 ft | 0 kts | 81° |
| 2026-04-22 13:28 | 52.44757 | 20.64899 | 333 ft | 1 kts | 81° |
| 2026-04-22 13:29 | 52.44761 | 20.64933 | 333 ft | 6 kts | 81° |
| 2026-04-22 13:29 | 52.44770 | 20.65038 | 337 ft | 12 kts | 81° |
| 2026-04-22 13:29 | 52.44787 | 20.65214 | 337 ft | 18 kts | 81° |
| 2026-04-22 13:29 | 52.44807 | 20.65429 | 333 ft | 19 kts | 81° |
| 2026-04-22 13:30 | 52.44826 | 20.65640 | 337 ft | 18 kts | 83° |
| 2026-04-22 13:30 | 52.44844 | 20.65845 | 336 ft | 18 kts | 81° |
| 2026-04-22 13:30 | 52.44863 | 20.66042 | 337 ft | 17 kts | 81° |
| 2026-04-22 13:30 | 52.44880 | 20.66232 | 332 ft | 17 kts | 81° |
| 2026-04-22 13:31 | 52.44897 | 20.66415 | 335 ft | 16 kts | 81° |
| 2026-04-22 13:31 | 52.44914 | 20.66588 | 336 ft | 15 kts | 81° |
| 2026-04-22 13:31 | 52.44930 | 20.66757 | 337 ft | 15 kts | 81° |
| 2026-04-22 13:31 | 52.44945 | 20.66920 | 337 ft | 14 kts | 81° |
| 2026-04-22 13:32 | 52.44964 | 20.67055 | 337 ft | 11 kts | 56° |
| 2026-04-22 13:32 | 52.45033 | 20.67074 | 333 ft | 11 kts | 351° |
| 2026-04-22 13:32 | 52.45105 | 20.67055 | 333 ft | 10 kts | 351° |
| 2026-04-22 13:32 | 52.45179 | 20.67036 | 335 ft | 11 kts | 347° |
| 2026-04-22 13:33 | 52.45248 | 20.66999 | 337 ft | 10 kts | 341° |
| 2026-04-22 13:33 | 52.45283 | 20.66914 | 336 ft | 10 kts | 263° |
| 2026-04-22 13:33 | 52.45258 | 20.66633 | 333 ft | 55 kts | 261° |
| 2026-04-22 13:33 | 52.45165 | 20.65638 | 337 ft | 119 kts | 261° |
| 2026-04-22 13:34 | 52.45013 | 20.64004 | 465 ft | 160 kts | 263° |
| 2026-04-22 13:34 | 52.44802 | 20.62158 | 1111 ft | 166 kts | 262° |
| 2026-04-22 13:34 | 52.44576 | 20.60292 | 1879 ft | 174 kts | 264° |
| 2026-04-22 13:34 | 52.44345 | 20.58204 | 2346 ft | 196 kts | 268° |
| 2026-04-22 13:35 | 52.44321 | 20.55859 | 2619 ft | 217 kts | 276° |
| 2026-04-22 13:35 | 52.44378 | 20.53338 | 3194 ft | 226 kts | 275° |
| 2026-04-22 13:35 | 52.44439 | 20.50629 | 3620 ft | 249 kts | 276° |
| 2026-04-22 13:35 | 52.44500 | 20.47790 | 4583 ft | 249 kts | 276° |
| 2026-04-22 13:36 | 52.44555 | 20.44911 | 5389 ft | 256 kts | 275° |
| 2026-04-22 13:36 | 52.44605 | 20.41945 | 6188 ft | 262 kts | 276° |
| 2026-04-22 13:36 | 52.44656 | 20.38920 | 6953 ft | 269 kts | 276° |
| 2026-04-22 13:36 | 52.44703 | 20.35828 | 7763 ft | 272 kts | 276° |
| 2026-04-22 13:37 | 52.44748 | 20.32697 | 8557 ft | 277 kts | 276° |
| 2026-04-22 13:37 | 52.44791 | 20.29507 | 9337 ft | 282 kts | 275° |
| 2026-04-22 13:37 | 52.44832 | 20.26276 | 10129 ft | 286 kts | 275° |
| 2026-04-22 13:37 | 52.44874 | 20.22994 | 10577 ft | 302 kts | 275° |
| 2026-04-22 13:38 | 52.44922 | 20.19409 | 10757 ft | 326 kts | 275° |
| 2026-04-22 13:38 | 52.45012 | 20.11664 | 11849 ft | 346 kts | 275° |
| 2026-04-22 13:38 | 52.45051 | 20.07690 | 12564 ft | 350 kts | 275° |
| 2026-04-22 13:39 | 52.45090 | 20.03668 | 13272 ft | 355 kts | 275° |
| 2026-04-22 13:39 | 52.45128 | 19.99582 | 13968 ft | 360 kts | 275° |
| 2026-04-22 13:39 | 52.45167 | 19.95443 | 14571 ft | 366 kts | 275° |
| 2026-04-22 13:39 | 52.45204 | 19.91250 | 15209 ft | 370 kts | 275° |
| 2026-04-22 13:40 | 52.45241 | 19.87011 | 15845 ft | 374 kts | 275° |
| 2026-04-22 13:40 | 52.45277 | 19.82712 | 16466 ft | 378 kts | 275° |
| 2026-04-22 13:40 | 52.45312 | 19.78366 | 17063 ft | 384 kts | 275° |
| 2026-04-22 13:40 | 52.45345 | 19.74014 | 17656 ft | 388 kts | 275° |
| 2026-04-22 13:41 | 52.45378 | 19.69564 | 18264 ft | 393 kts | 275° |
| 2026-04-22 13:41 | 52.45409 | 19.65062 | 18811 ft | 397 kts | 275° |
| 2026-04-22 13:41 | 52.45439 | 19.60501 | 19314 ft | 402 kts | 274° |
| 2026-04-22 13:41 | 52.45467 | 19.55890 | 19815 ft | 407 kts | 274° |
| 2026-04-22 13:42 | 52.45494 | 19.51228 | 20331 ft | 411 kts | 274° |
| 2026-04-22 13:42 | 52.45519 | 19.46506 | 20824 ft | 415 kts | 274° |
| 2026-04-22 13:42 | 52.45543 | 19.41746 | 21310 ft | 420 kts | 274° |
| 2026-04-22 13:42 | 52.45565 | 19.36927 | 21796 ft | 424 kts | 274° |
| 2026-04-22 13:43 | 52.45585 | 19.32130 | 22257 ft | 428 kts | 274° |
| 2026-04-22 13:43 | 52.45603 | 19.27222 | 22735 ft | 433 kts | 273° |
| 2026-04-22 13:43 | 52.45619 | 19.22270 | 23183 ft | 437 kts | 273° |
| 2026-04-22 13:43 | 52.45634 | 19.17250 | 23643 ft | 441 kts | 273° |
| 2026-04-22 13:44 | 52.45646 | 19.12207 | 24031 ft | 444 kts | 273° |
| 2026-04-22 13:44 | 52.45656 | 19.07123 | 24427 ft | 447 kts | 273° |
| 2026-04-22 13:44 | 52.45664 | 19.02004 | 24825 ft | 450 kts | 273° |
| 2026-04-22 13:44 | 52.45671 | 18.96830 | 25215 ft | 454 kts | 273° |
| 2026-04-22 13:45 | 52.45675 | 18.91680 | 25547 ft | 458 kts | 273° |
| 2026-04-22 13:45 | 52.45676 | 18.86436 | 25905 ft | 461 kts | 272° |
| 2026-04-22 13:45 | 52.45676 | 18.81161 | 26272 ft | 464 kts | 272° |
| 2026-04-22 13:45 | 52.45673 | 18.75845 | 26623 ft | 467 kts | 272° |
| 2026-04-22 13:46 | 52.45667 | 18.70503 | 26941 ft | 470 kts | 272° |
| 2026-04-22 13:46 | 52.45659 | 18.65138 | 27329 ft | 472 kts | 272° |
| 2026-04-22 13:46 | 52.45648 | 18.59777 | 27668 ft | 475 kts | 272° |
| 2026-04-22 13:46 | 52.45636 | 18.54353 | 27984 ft | 478 kts | 272° |
| 2026-04-22 13:47 | 52.45621 | 18.48882 | 28291 ft | 481 kts | 272° |
| 2026-04-22 13:47 | 52.45603 | 18.43375 | 28602 ft | 484 kts | 272° |
| 2026-04-22 13:47 | 52.45582 | 18.37842 | 28917 ft | 486 kts | 272° |
| 2026-04-22 13:47 | 52.45558 | 18.32256 | 29225 ft | 489 kts | 272° |
| 2026-04-22 13:48 | 52.45532 | 18.26651 | 29519 ft | 492 kts | 271° |
| 2026-04-22 13:48 | 52.45503 | 18.21024 | 29801 ft | 494 kts | 271° |
| 2026-04-22 13:48 | 52.45471 | 18.15383 | 30071 ft | 497 kts | 271° |
| 2026-04-22 13:48 | 52.45437 | 18.09766 | 30316 ft | 499 kts | 271° |
| 2026-04-22 13:49 | 52.45399 | 18.04051 | 30559 ft | 501 kts | 271° |
| 2026-04-22 13:49 | 52.45358 | 17.98329 | 30830 ft | 502 kts | 271° |
| 2026-04-22 13:49 | 52.45315 | 17.92598 | 31109 ft | 503 kts | 271° |
| 2026-04-22 13:49 | 52.45268 | 17.86870 | 31442 ft | 502 kts | 271° |
| 2026-04-22 13:50 | 52.45219 | 17.81146 | 31810 ft | 500 kts | 271° |
| 2026-04-22 13:50 | 52.45167 | 17.75444 | 32156 ft | 499 kts | 271° |
| 2026-04-22 13:50 | 52.45114 | 17.69835 | 32456 ft | 499 kts | 271° |
| 2026-04-22 13:50 | 52.45057 | 17.64150 | 32741 ft | 498 kts | 271° |
| 2026-04-22 13:51 | 52.44998 | 17.58475 | 33067 ft | 497 kts | 271° |
| 2026-04-22 13:51 | 52.44936 | 17.52792 | 33383 ft | 496 kts | 271° |
| 2026-04-22 13:51 | 52.44872 | 17.47137 | 33673 ft | 496 kts | 271° |
| 2026-04-22 13:51 | 52.44805 | 17.41482 | 34000 ft | 495 kts | 271° |
| 2026-04-22 13:52 | 52.44736 | 17.35917 | 34329 ft | 493 kts | 271° |
| 2026-04-22 13:52 | 52.44663 | 17.30304 | 34612 ft | 492 kts | 271° |
| 2026-04-22 13:52 | 52.44589 | 17.24706 | 34848 ft | 491 kts | 271° |
| 2026-04-22 13:52 | 52.44512 | 17.19100 | 35073 ft | 491 kts | 271° |
| 2026-04-22 13:53 | 52.44432 | 17.13511 | 35306 ft | 490 kts | 271° |
| 2026-04-22 13:53 | 52.44350 | 17.07929 | 35551 ft | 489 kts | 271° |
| 2026-04-22 13:53 | 52.44266 | 17.02339 | 35774 ft | 488 kts | 271° |
| 2026-04-22 13:53 | 52.44179 | 16.96786 | 35999 ft | 487 kts | 271° |
| 2026-04-22 13:54 | 52.44089 | 16.91212 | 36241 ft | 486 kts | 271° |
| 2026-04-22 13:54 | 52.43998 | 16.85744 | 36469 ft | 485 kts | 271° |
| 2026-04-22 13:54 | 52.43904 | 16.80205 | 36681 ft | 485 kts | 271° |
| 2026-04-22 13:54 | 52.43807 | 16.74657 | 36889 ft | 484 kts | 271° |
| 2026-04-22 13:55 | 52.43707 | 16.69135 | 37105 ft | 483 kts | 271° |
| 2026-04-22 13:55 | 52.43606 | 16.63659 | 37321 ft | 482 kts | 271° |
| 2026-04-22 13:55 | 52.43504 | 16.58228 | 37497 ft | 482 kts | 270° |
| 2026-04-22 13:55 | 52.43397 | 16.52715 | 37672 ft | 482 kts | 270° |
| 2026-04-22 13:56 | 52.43289 | 16.47268 | 37863 ft | 481 kts | 270° |
| 2026-04-22 13:56 | 52.43177 | 16.41742 | 38059 ft | 480 kts | 270° |
| 2026-04-22 13:56 | 52.43064 | 16.36289 | 38192 ft | 480 kts | 270° |
| 2026-04-22 13:56 | 52.42947 | 16.30761 | 38182 ft | 483 kts | 270° |
| 2026-04-22 13:57 | 52.42708 | 16.19872 | 38196 ft | 481 kts | 270° |
| 2026-04-22 13:57 | 52.42456 | 16.08874 | 38188 ft | 479 kts | 270° |
| 2026-04-22 13:58 | 52.42199 | 15.98056 | 38204 ft | 477 kts | 270° |
| 2026-04-22 13:58 | 52.41930 | 15.87174 | 38224 ft | 475 kts | 270° |
| 2026-04-22 13:59 | 52.41655 | 15.76406 | 38227 ft | 475 kts | 270° |
| 2026-04-22 13:59 | 52.41368 | 15.65579 | 38232 ft | 475 kts | 270° |
| 2026-04-22 14:00 | 52.41072 | 15.54765 | 38214 ft | 476 kts | 269° |
| 2026-04-22 14:00 | 52.40766 | 15.43965 | 38235 ft | 477 kts | 269° |
| 2026-04-22 14:01 | 52.40449 | 15.33139 | 38242 ft | 478 kts | 269° |
| 2026-04-22 14:01 | 52.40120 | 15.22245 | 38240 ft | 480 kts | 269° |
| 2026-04-22 14:02 | 52.39781 | 15.11325 | 38245 ft | 481 kts | 269° |
| 2026-04-22 14:02 | 52.39428 | 15.00325 | 38232 ft | 482 kts | 269° |
| 2026-04-22 14:03 | 52.39067 | 14.89375 | 38248 ft | 483 kts | 269° |
| 2026-04-22 14:03 | 52.38696 | 14.78421 | 38249 ft | 483 kts | 269° |
| 2026-04-22 14:04 | 52.38315 | 14.67420 | 38246 ft | 483 kts | 269° |
| 2026-04-22 14:04 | 52.37967 | 14.56436 | 38245 ft | 482 kts | 271° |
| 2026-04-22 14:05 | 52.38025 | 14.45495 | 38252 ft | 481 kts | 274° |
| 2026-04-22 14:06 | 52.38278 | 14.29083 | 38267 ft | 480 kts | 274° |
| 2026-04-22 14:06 | 52.38395 | 14.18193 | 38260 ft | 479 kts | 273° |
| 2026-04-22 14:07 | 52.38481 | 14.07317 | 38262 ft | 478 kts | 273° |
| 2026-04-22 14:07 | 52.38552 | 13.96434 | 38257 ft | 477 kts | 272° |
| 2026-04-22 14:08 | 52.38613 | 13.85600 | 38265 ft | 477 kts | 272° |
| 2026-04-22 14:08 | 52.38665 | 13.74799 | 38266 ft | 476 kts | 272° |
| 2026-04-22 14:09 | 52.38709 | 13.63880 | 38260 ft | 476 kts | 272° |
| 2026-04-22 14:09 | 52.38742 | 13.53105 | 38266 ft | 476 kts | 272° |
| 2026-04-22 14:10 | 52.38765 | 13.42291 | 38262 ft | 475 kts | 272° |
| 2026-04-22 14:10 | 52.38779 | 13.31466 | 38265 ft | 475 kts | 272° |
| 2026-04-22 14:11 | 52.38782 | 13.20731 | 38271 ft | 474 kts | 272° |
| 2026-04-22 14:11 | 52.38778 | 13.11668 | 38288 ft | 474 kts | 272° |
| 2026-04-22 14:12 | 52.38760 | 12.99131 | 38268 ft | 474 kts | 271° |
| 2026-04-22 14:12 | 52.38739 | 12.90115 | 38289 ft | 474 kts | 271° |
| 2026-04-22 14:13 | 52.38705 | 12.79376 | 38310 ft | 474 kts | 271° |
| 2026-04-22 14:13 | 52.38661 | 12.68571 | 38294 ft | 474 kts | 271° |
| 2026-04-22 14:14 | 52.38608 | 12.57811 | 38308 ft | 473 kts | 271° |
| 2026-04-22 14:14 | 52.38544 | 12.47024 | 38302 ft | 473 kts | 271° |
| 2026-04-22 14:15 | 52.38471 | 12.36293 | 38318 ft | 472 kts | 271° |
| 2026-04-22 14:15 | 52.38389 | 12.25533 | 38315 ft | 472 kts | 271° |
| 2026-04-22 14:16 | 52.38296 | 12.14748 | 38319 ft | 472 kts | 271° |
| 2026-04-22 14:16 | 52.38194 | 12.04012 | 38317 ft | 471 kts | 271° |
| 2026-04-22 14:17 | 52.38082 | 11.93303 | 38315 ft | 471 kts | 271° |
| 2026-04-22 14:17 | 52.37961 | 11.82589 | 38319 ft | 470 kts | 271° |
| 2026-04-22 14:18 | 52.37830 | 11.71910 | 38328 ft | 470 kts | 270° |
| 2026-04-22 14:18 | 52.37690 | 11.61250 | 38331 ft | 469 kts | 270° |
| 2026-04-22 14:19 | 52.37541 | 11.50612 | 38337 ft | 469 kts | 270° |
| 2026-04-22 14:19 | 52.37381 | 11.39901 | 38330 ft | 469 kts | 270° |
| 2026-04-22 14:20 | 52.37125 | 11.23956 | 38345 ft | 468 kts | 270° |
| 2026-04-22 14:20 | 52.36942 | 11.13302 | 38341 ft | 468 kts | 270° |
| 2026-04-22 14:21 | 52.36650 | 10.97297 | 38344 ft | 468 kts | 270° |
| 2026-04-22 14:22 | 52.36339 | 10.81401 | 38344 ft | 468 kts | 270° |
| 2026-04-22 14:23 | 52.35790 | 10.65469 | 38352 ft | 468 kts | 268° |
| 2026-04-22 14:23 | 52.35311 | 10.54815 | 38347 ft | 469 kts | 268° |
| 2026-04-22 14:24 | 52.34840 | 10.44176 | 38326 ft | 469 kts | 268° |
| 2026-04-22 14:24 | 52.34376 | 10.33561 | 38339 ft | 468 kts | 268° |
| 2026-04-22 14:25 | 52.33907 | 10.22927 | 38342 ft | 468 kts | 268° |
| 2026-04-22 14:25 | 52.33430 | 10.12301 | 38346 ft | 468 kts | 268° |
| 2026-04-22 14:26 | 52.32944 | 10.01734 | 38368 ft | 468 kts | 268° |
| 2026-04-22 14:26 | 52.32446 | 9.91113 | 38356 ft | 468 kts | 267° |
| 2026-04-22 14:27 | 52.31939 | 9.80496 | 38371 ft | 468 kts | 267° |
| 2026-04-22 14:27 | 52.31425 | 9.69935 | 38377 ft | 467 kts | 267° |
| 2026-04-22 14:28 | 52.30898 | 9.59307 | 38370 ft | 467 kts | 267° |
| 2026-04-22 14:28 | 52.30364 | 9.48746 | 38372 ft | 467 kts | 267° |
| 2026-04-22 14:29 | 52.29824 | 9.38233 | 38374 ft | 466 kts | 267° |
| 2026-04-22 14:29 | 52.29271 | 9.27663 | 38376 ft | 466 kts | 267° |
| 2026-04-22 14:30 | 52.28708 | 9.17089 | 38369 ft | 466 kts | 267° |
| 2026-04-22 14:30 | 52.28140 | 9.06589 | 38369 ft | 466 kts | 267° |
| 2026-04-22 14:31 | 52.27558 | 8.96005 | 38365 ft | 466 kts | 266° |
| 2026-04-22 14:31 | 52.26969 | 8.85479 | 38375 ft | 466 kts | 266° |
| 2026-04-22 14:32 | 52.26374 | 8.75000 | 38366 ft | 466 kts | 266° |
| 2026-04-22 14:32 | 52.25763 | 8.64428 | 38371 ft | 466 kts | 266° |
| 2026-04-22 14:33 | 52.25149 | 8.53954 | 38362 ft | 466 kts | 266° |
| 2026-04-22 14:33 | 52.24525 | 8.43469 | 38370 ft | 466 kts | 266° |
| 2026-04-22 14:34 | 52.23886 | 8.32900 | 38367 ft | 465 kts | 266° |
| 2026-04-22 14:34 | 52.23245 | 8.22450 | 38373 ft | 465 kts | 266° |
| 2026-04-22 14:35 | 52.22591 | 8.11952 | 38368 ft | 465 kts | 266° |
| 2026-04-22 14:35 | 52.21929 | 8.01467 | 38370 ft | 465 kts | 266° |
| 2026-04-22 14:36 | 52.21255 | 7.90943 | 38370 ft | 465 kts | 266° |
| 2026-04-22 14:36 | 52.20577 | 7.80516 | 38366 ft | 464 kts | 266° |
| 2026-04-22 14:37 | 52.19888 | 7.70042 | 38372 ft | 463 kts | 266° |
| 2026-04-22 14:37 | 52.19190 | 7.59595 | 38376 ft | 463 kts | 265° |
| 2026-04-22 14:38 | 52.18484 | 7.49168 | 38373 ft | 463 kts | 265° |
| 2026-04-22 14:38 | 52.17770 | 7.38755 | 38358 ft | 462 kts | 265° |
| 2026-04-22 14:39 | 52.17048 | 7.28363 | 38377 ft | 462 kts | 265° |
| 2026-04-22 14:39 | 52.16319 | 7.17995 | 38376 ft | 462 kts | 265° |
| 2026-04-22 14:40 | 52.15218 | 7.02598 | 38371 ft | 462 kts | 265° |
| 2026-04-22 14:40 | 52.14462 | 6.92184 | 38374 ft | 462 kts | 265° |
| 2026-04-22 14:41 | 52.13703 | 6.81830 | 38369 ft | 461 kts | 265° |
| 2026-04-22 14:41 | 52.12971 | 6.71452 | 38374 ft | 461 kts | 266° |
| 2026-04-22 14:42 | 52.12414 | 6.61113 | 38374 ft | 461 kts | 267° |
| 2026-04-22 14:42 | 52.11874 | 6.50720 | 38377 ft | 461 kts | 267° |
| 2026-04-22 14:43 | 52.11301 | 6.40267 | 38374 ft | 461 kts | 267° |
| 2026-04-22 14:43 | 52.10712 | 6.29940 | 38373 ft | 461 kts | 267° |
| 2026-04-22 14:44 | 52.10138 | 6.19548 | 38370 ft | 460 kts | 268° |
| 2026-04-22 14:44 | 52.09799 | 6.09154 | 38373 ft | 459 kts | 270° |
| 2026-04-22 14:45 | 52.09509 | 5.98851 | 38373 ft | 459 kts | 269° |
| 2026-04-22 14:45 | 52.09182 | 5.88496 | 38358 ft | 458 kts | 269° |
| 2026-04-22 14:46 | 52.08822 | 5.78138 | 38373 ft | 458 kts | 269° |
| 2026-04-22 14:46 | 52.08448 | 5.67809 | 38376 ft | 457 kts | 269° |
| 2026-04-22 14:47 | 52.08065 | 5.57499 | 38375 ft | 457 kts | 269° |
| 2026-04-22 14:47 | 52.07673 | 5.47168 | 38374 ft | 457 kts | 269° |
| 2026-04-22 14:48 | 52.07273 | 5.36866 | 38363 ft | 456 kts | 268° |
| 2026-04-22 14:48 | 52.06868 | 5.26630 | 38365 ft | 456 kts | 268° |
| 2026-04-22 14:49 | 52.06451 | 5.16355 | 38369 ft | 456 kts | 268° |
| 2026-04-22 14:49 | 52.06026 | 5.06072 | 38377 ft | 456 kts | 268° |
| 2026-04-22 14:50 | 52.05592 | 4.95800 | 38381 ft | 456 kts | 268° |
| 2026-04-22 14:50 | 52.05148 | 4.85516 | 38371 ft | 455 kts | 268° |
| 2026-04-22 14:51 | 52.04698 | 4.75304 | 38376 ft | 455 kts | 268° |
| 2026-04-22 14:51 | 52.04238 | 4.65054 | 38369 ft | 454 kts | 268° |
| 2026-04-22 14:52 | 52.03770 | 4.54824 | 38369 ft | 454 kts | 268° |
| 2026-04-22 14:52 | 52.03292 | 4.44588 | 38371 ft | 454 kts | 268° |
| 2026-04-22 14:53 | 52.02807 | 4.34372 | 38374 ft | 453 kts | 268° |
| 2026-04-22 14:53 | 52.02312 | 4.24156 | 38373 ft | 453 kts | 268° |
| 2026-04-22 14:54 | 52.01812 | 4.14002 | 38372 ft | 453 kts | 268° |
| 2026-04-22 14:54 | 52.01300 | 4.03773 | 37850 ft | 460 kts | 268° |
| 2026-04-22 14:55 | 52.01037 | 3.98614 | 37328 ft | 457 kts | 268° |
| 2026-04-22 14:55 | 52.00773 | 3.93469 | 36791 ft | 455 kts | 268° |
| 2026-04-22 14:55 | 52.00597 | 3.90067 | 36397 ft | 454 kts | 268° |
| 2026-04-22 14:55 | 52.00246 | 3.83336 | 35815 ft | 449 kts | 268° |
| 2026-04-22 14:56 | 51.99981 | 3.78321 | 35394 ft | 445 kts | 268° |
| 2026-04-22 14:56 | 51.99717 | 3.73336 | 34984 ft | 441 kts | 268° |
| 2026-04-22 14:56 | 51.99538 | 3.69993 | 34703 ft | 438 kts | 268° |
| 2026-04-22 14:56 | 51.99278 | 3.65140 | 34294 ft | 435 kts | 268° |
| 2026-04-22 14:57 | 51.99014 | 3.60266 | 33817 ft | 431 kts | 268° |
| 2026-04-22 14:57 | 51.98751 | 3.55446 | 33388 ft | 427 kts | 268° |
| 2026-04-22 14:57 | 51.98489 | 3.50676 | 32998 ft | 422 kts | 268° |
| 2026-04-22 14:57 | 51.98228 | 3.45955 | 32586 ft | 418 kts | 268° |
| 2026-04-22 14:58 | 51.97968 | 3.41275 | 32167 ft | 414 kts | 268° |
| 2026-04-22 14:58 | 51.97774 | 3.36658 | 31843 ft | 407 kts | 273° |
| 2026-04-22 14:58 | 51.97827 | 3.32124 | 31606 ft | 398 kts | 276° |
| 2026-04-22 14:58 | 51.97953 | 3.27677 | 31315 ft | 392 kts | 277° |
| 2026-04-22 14:59 | 51.98098 | 3.23279 | 30954 ft | 389 kts | 276° |
| 2026-04-22 14:59 | 51.98239 | 3.18918 | 30590 ft | 386 kts | 276° |
| 2026-04-22 14:59 | 51.98368 | 3.14579 | 30181 ft | 384 kts | 276° |
| 2026-04-22 14:59 | 51.98485 | 3.10265 | 29758 ft | 381 kts | 276° |
| 2026-04-22 15:00 | 51.98590 | 3.06030 | 29369 ft | 377 kts | 275° |
| 2026-04-22 15:00 | 51.98690 | 3.01783 | 28988 ft | 374 kts | 275° |
| 2026-04-22 15:00 | 51.98785 | 2.97591 | 28591 ft | 372 kts | 275° |
| 2026-04-22 15:00 | 51.98879 | 2.93408 | 28167 ft | 371 kts | 274° |
| 2026-04-22 15:01 | 51.98968 | 2.89237 | 27835 ft | 368 kts | 275° |
| 2026-04-22 15:01 | 51.99057 | 2.85056 | 27452 ft | 372 kts | 275° |
| 2026-04-22 15:01 | 51.99147 | 2.80799 | 27082 ft | 386 kts | 275° |
| 2026-04-22 15:01 | 51.99239 | 2.76477 | 26676 ft | 389 kts | 273° |
| 2026-04-22 15:02 | 51.99325 | 2.72083 | 26272 ft | 387 kts | 273° |
| 2026-04-22 15:02 | 51.99409 | 2.67728 | 25859 ft | 385 kts | 273° |
| 2026-04-22 15:02 | 51.99491 | 2.63398 | 25457 ft | 384 kts | 273° |
| 2026-04-22 15:02 | 51.99572 | 2.59081 | 25061 ft | 382 kts | 273° |
| 2026-04-22 15:03 | 51.99651 | 2.54766 | 24665 ft | 381 kts | 272° |
| 2026-04-22 15:03 | 51.99729 | 2.50478 | 24291 ft | 379 kts | 272° |
| 2026-04-22 15:03 | 51.99805 | 2.46211 | 23908 ft | 378 kts | 272° |
| 2026-04-22 15:03 | 51.99880 | 2.41949 | 23466 ft | 376 kts | 271° |
| 2026-04-22 15:04 | 51.99952 | 2.37730 | 23081 ft | 373 kts | 271° |
| 2026-04-22 15:04 | 52.00022 | 2.33521 | 22693 ft | 371 kts | 271° |
| 2026-04-22 15:04 | 52.00089 | 2.29402 | 22338 ft | 368 kts | 271° |
| 2026-04-22 15:04 | 52.00155 | 2.25264 | 21981 ft | 365 kts | 271° |
| 2026-04-22 15:05 | 52.00219 | 2.21166 | 21631 ft | 363 kts | 271° |
| 2026-04-22 15:05 | 52.00281 | 2.17081 | 21270 ft | 360 kts | 270° |
| 2026-04-22 15:05 | 52.00342 | 2.13035 | 20924 ft | 358 kts | 270° |
| 2026-04-22 15:05 | 52.00401 | 2.08975 | 20568 ft | 356 kts | 270° |
| 2026-04-22 15:06 | 52.00458 | 2.04966 | 20231 ft | 354 kts | 270° |
| 2026-04-22 15:06 | 52.00513 | 2.01030 | 19893 ft | 353 kts | 270° |
| 2026-04-22 15:06 | 52.00567 | 1.97055 | 19557 ft | 351 kts | 270° |
| 2026-04-22 15:06 | 52.00620 | 1.93101 | 19219 ft | 349 kts | 269° |
| 2026-04-22 15:07 | 52.00670 | 1.89162 | 18881 ft | 348 kts | 270° |
| 2026-04-22 15:07 | 52.00720 | 1.85236 | 18519 ft | 347 kts | 269° |
| 2026-04-22 15:07 | 52.00768 | 1.81319 | 18138 ft | 346 kts | 269° |
| 2026-04-22 15:07 | 52.00814 | 1.77426 | 17784 ft | 344 kts | 269° |
| 2026-04-22 15:08 | 52.00859 | 1.73549 | 17433 ft | 342 kts | 269° |
| 2026-04-22 15:08 | 52.00902 | 1.69703 | 17095 ft | 340 kts | 269° |
| 2026-04-22 15:08 | 52.00944 | 1.65870 | 16751 ft | 338 kts | 269° |
| 2026-04-22 15:08 | 52.00984 | 1.62112 | 16423 ft | 337 kts | 269° |
| 2026-04-22 15:09 | 52.01023 | 1.58325 | 16086 ft | 335 kts | 269° |
| 2026-04-22 15:09 | 52.01061 | 1.54539 | 15747 ft | 334 kts | 269° |
| 2026-04-22 15:09 | 52.01097 | 1.50781 | 15414 ft | 333 kts | 269° |
| 2026-04-22 15:09 | 52.01132 | 1.47038 | 15086 ft | 331 kts | 269° |
| 2026-04-22 15:10 | 52.01165 | 1.43299 | 14762 ft | 330 kts | 269° |
| 2026-04-22 15:10 | 52.01198 | 1.39585 | 14433 ft | 329 kts | 268° |
| 2026-04-22 15:10 | 52.01229 | 1.35871 | 14089 ft | 328 kts | 268° |
| 2026-04-22 15:10 | 52.01259 | 1.32158 | 13705 ft | 328 kts | 268° |
| 2026-04-22 15:11 | 52.01287 | 1.28456 | 13369 ft | 326 kts | 269° |
| 2026-04-22 15:11 | 52.01315 | 1.24780 | 13027 ft | 325 kts | 268° |
| 2026-04-22 15:11 | 52.01341 | 1.21131 | 12707 ft | 323 kts | 268° |
| 2026-04-22 15:11 | 52.01366 | 1.17539 | 12382 ft | 321 kts | 269° |
| 2026-04-22 15:12 | 52.01390 | 1.13923 | 12048 ft | 320 kts | 268° |
| 2026-04-22 15:12 | 52.01412 | 1.10319 | 11731 ft | 319 kts | 269° |
| 2026-04-22 15:12 | 52.01433 | 1.06724 | 11405 ft | 318 kts | 268° |
| 2026-04-22 15:12 | 52.01453 | 1.03147 | 11090 ft | 316 kts | 268° |
| 2026-04-22 15:13 | 52.01472 | 0.99571 | 10769 ft | 315 kts | 268° |
| 2026-04-22 15:13 | 52.01490 | 0.96051 | 10624 ft | 308 kts | 268° |
| 2026-04-22 15:13 | 52.01507 | 0.92613 | 10478 ft | 301 kts | 268° |
| 2026-04-22 15:13 | 52.01523 | 0.89235 | 10311 ft | 296 kts | 268° |
| 2026-04-22 15:14 | 52.01536 | 0.85902 | 10012 ft | 295 kts | 268° |
| 2026-04-22 15:14 | 52.01548 | 0.82571 | 9714 ft | 294 kts | 268° |
| 2026-04-22 15:14 | 52.01560 | 0.79256 | 9429 ft | 293 kts | 268° |
| 2026-04-22 15:14 | 52.01570 | 0.75989 | 9154 ft | 291 kts | 268° |
| 2026-04-22 15:15 | 52.01581 | 0.72694 | 8870 ft | 290 kts | 268° |
| 2026-04-22 15:15 | 52.01591 | 0.69440 | 8690 ft | 285 kts | 268° |
| 2026-04-22 15:15 | 52.01599 | 0.66259 | 8561 ft | 278 kts | 268° |
| 2026-04-22 15:15 | 52.01606 | 0.63167 | 8439 ft | 271 kts | 268° |
| 2026-04-22 15:16 | 52.01611 | 0.60137 | 8295 ft | 265 kts | 267° |
| 2026-04-22 15:16 | 52.01508 | 0.57119 | 7871 ft | 271 kts | 262° |
| 2026-04-22 15:16 | 52.01328 | 0.54047 | 7441 ft | 277 kts | 262° |
| 2026-04-22 15:16 | 52.01142 | 0.50889 | 6991 ft | 284 kts | 262° |
| 2026-04-22 15:17 | 52.00962 | 0.47689 | 6527 ft | 291 kts | 262° |
| 2026-04-22 15:17 | 52.00802 | 0.44435 | 6381 ft | 284 kts | 264° |
| 2026-04-22 15:17 | 52.00680 | 0.41291 | 6340 ft | 274 kts | 264° |
| 2026-04-22 15:17 | 52.00565 | 0.38267 | 6326 ft | 263 kts | 263° |
| 2026-04-22 15:18 | 52.00448 | 0.35330 | 6342 ft | 258 kts | 263° |
| 2026-04-22 15:18 | 52.00330 | 0.32437 | 6374 ft | 257 kts | 263° |
| 2026-04-22 15:18 | 52.00211 | 0.29527 | 6379 ft | 258 kts | 262° |
| 2026-04-22 15:18 | 51.99722 | 0.26800 | 6366 ft | 249 kts | 228° |
| 2026-04-22 15:19 | 51.98537 | 0.24847 | 6393 ft | 244 kts | 217° |
| 2026-04-22 15:19 | 51.97266 | 0.22962 | 6390 ft | 247 kts | 217° |
| 2026-04-22 15:19 | 51.95978 | 0.21061 | 5873 ft | 267 kts | 218° |
| 2026-04-22 15:19 | 51.94584 | 0.18983 | 5384 ft | 276 kts | 218° |
| 2026-04-22 15:20 | 51.93634 | 0.17552 | 5173 ft | 276 kts | 218° |
| 2026-04-22 15:20 | 51.91780 | 0.14750 | 4842 ft | 272 kts | 218° |
| 2026-04-22 15:20 | 51.90406 | 0.12671 | 4645 ft | 267 kts | 218° |
| 2026-04-22 15:20 | 51.89054 | 0.10628 | 4452 ft | 263 kts | 218° |
| 2026-04-22 15:21 | 51.87746 | 0.08649 | 4295 ft | 257 kts | 218° |
| 2026-04-22 15:21 | 51.86447 | 0.06695 | 4153 ft | 253 kts | 218° |
| 2026-04-22 15:21 | 51.85170 | 0.04761 | 3975 ft | 250 kts | 218° |
| 2026-04-22 15:21 | 51.83923 | 0.02859 | 3818 ft | 245 kts | 218° |
| 2026-04-22 15:22 | 51.82689 | 0.00977 | 3667 ft | 242 kts | 219° |
| 2026-04-22 15:22 | 51.81467 | -0.00885 | 3593 ft | 241 kts | 218° |
| 2026-04-22 15:22 | 51.80191 | -0.02520 | 3470 ft | 225 kts | 197° |
| 2026-04-22 15:22 | 51.78757 | -0.02802 | 3353 ft | 198 kts | 163° |
| 2026-04-22 15:23 | 51.77518 | -0.02116 | 3240 ft | 181 kts | 144° |
| 2026-04-22 15:23 | 51.76563 | -0.00944 | 3077 ft | 167 kts | 122° |
| 2026-04-22 15:23 | 51.76081 | 0.00674 | 2863 ft | 162 kts | 101° |
| 2026-04-22 15:23 | 51.76009 | 0.02322 | 2762 ft | 160 kts | 85° |
| 2026-04-22 15:24 | 51.76239 | 0.04073 | 2624 ft | 161 kts | 73° |
| 2026-04-22 15:24 | 51.76801 | 0.05663 | 2511 ft | 165 kts | 50° |
| 2026-04-22 15:24 | 51.77631 | 0.06978 | 2483 ft | 171 kts | 51° |
| 2026-04-22 15:24 | 51.78471 | 0.08341 | 2474 ft | 171 kts | 49° |
| 2026-04-22 15:25 | 51.79322 | 0.09651 | 2462 ft | 168 kts | 49° |
| 2026-04-22 15:25 | 51.80157 | 0.10913 | 2396 ft | 162 kts | 49° |
| 2026-04-22 15:25 | 51.80980 | 0.12157 | 2183 ft | 161 kts | 47° |
| 2026-04-22 15:25 | 51.81796 | 0.13382 | 1979 ft | 157 kts | 47° |
| 2026-04-22 15:26 | 51.82573 | 0.14555 | 1752 ft | 147 kts | 49° |
| 2026-04-22 15:26 | 51.83299 | 0.15649 | 1555 ft | 143 kts | 50° |
| 2026-04-22 15:26 | 51.84009 | 0.16719 | 1372 ft | 136 kts | 49° |
| 2026-04-22 15:26 | 51.84699 | 0.17755 | 1185 ft | 135 kts | 47° |
| 2026-04-22 15:27 | 51.85396 | 0.18809 | 998 ft | 140 kts | 49° |
| 2026-04-22 15:27 | 51.86096 | 0.19863 | 821 ft | 136 kts | 50° |
| 2026-04-22 15:27 | 51.86789 | 0.20899 | 630 ft | 136 kts | 52° |
| 2026-04-22 15:27 | 51.87488 | 0.21970 | 416 ft | 140 kts | 47° |
| 2026-04-22 15:28 | 51.88191 | 0.23018 | 330 ft | 127 kts | 42° |
| 2026-04-22 15:28 | 51.88602 | 0.23632 | 339 ft | 58 kts | 43° |
| 2026-04-22 15:28 | 51.88820 | 0.24001 | 349 ft | 38 kts | 58° |
| 2026-04-22 15:28 | 51.88887 | 0.24268 | 346 ft | 19 kts | 72° |
| 2026-04-22 15:29 | 51.88919 | 0.24455 | 355 ft | 13 kts | 93° |
| 2026-04-22 15:29 | 51.88918 | 0.24591 | 358 ft | 13 kts | 45° |
| 2026-04-22 15:29 | 51.88984 | 0.24691 | 351 ft | 13 kts | 43° |
| 2026-04-22 15:30 | 51.89089 | 0.24849 | 351 ft | 12 kts | 43° |
| 2026-04-22 15:30 | 51.89175 | 0.24976 | 351 ft | 13 kts | 42° |
| 2026-04-22 15:30 | 51.89230 | 0.25085 | 354 ft | 12 kts | 58° |
| 2026-04-22 15:30 | 51.89218 | 0.25206 | 356 ft | 12 kts | 130° |
| 2026-04-22 15:31 | 51.89176 | 0.25319 | 353 ft | 12 kts | 117° |
| 2026-04-22 15:31 | 51.89126 | 0.25418 | 355 ft | 11 kts | 132° |
| 2026-04-22 15:31 | 51.89073 | 0.25510 | 353 ft | 11 kts | 133° |
| 2026-04-22 15:31 | 51.89051 | 0.25571 | 356 ft | 3 kts | 60° |
| 2026-04-22 15:32 | 51.89067 | 0.25594 | 354 ft | 3 kts | 43° |
| 2026-04-22 15:32 | 51.89077 | 0.25610 | 351 ft | 0 kts | 43° |